sensor_id;sensor_type;location;lat;lon;timestamp;pressure;altitude;pressure_sealevel;temperature;humidity
60099;BME280;62818;49.394;8.686;2023-12-29T00:00:48;100457.72;;;9.22;100.00
60099;BME280;62818;49.394;8.686;2023-12-29T00:01:49;100459.53;;;9.22;100.00
60099;BME280;62818;49.394;8.686;2023-12-29T00:02:49;100454.06;;;9.23;100.00
60099;BME280;62818;49.394;8.686;2023-12-29T00:03:50;100453.09;;;9.24;100.00
60099;BME280;62818;49.394;8.686;2023-12-29T00:04:50;100433.06;;;9.22;100.00
60099;BME280;62818;49.394;8.686;2023-12-29T00:05:50;100431.75;;;9.18;100.00
60099;BME280;62818;49.394;8.686;2023-12-29T00:06:51;100438.69;;;9.35;100.00
60099;BME280;62818;49.394;8.686;2023-12-29T00:07:51;100451.25;;;9.17;100.00
60099;BME280;62818;49.394;8.686;2023-12-29T00:08:51;100452.75;;;9.11;100.00
60099;BME280;62818;49.394;8.686;2023-12-29T00:09:52;100449.28;;;9.03;100.00
60099;BME280;62818;49.394;8.686;2023-12-29T00:10:52;100454.38;;;9.04;100.00
60099;BME280;62818;49.394;8.686;2023-12-29T00:11:52;100459.19;;;9.25;100.00
60099;BME280;62818;49.394;8.686;2023-12-29T00:12:54;100460.19;;;9.16;100.00
60099;BME280;62818;49.394;8.686;2023-12-29T00:13:54;100455.41;;;9.03;100.00
60099;BME280;62818;49.394;8.686;2023-12-29T00:14:55;100460.16;;;9.00;100.00
60099;BME280;62818;49.394;8.686;2023-12-29T00:15:55;100449.25;;;9.11;100.00
60099;BME280;62818;49.394;8.686;2023-12-29T00:16:55;100441.00;;;9.06;100.00
60099;BME280;62818;49.394;8.686;2023-12-29T00:17:57;100446.13;;;9.07;100.00
60099;BME280;62818;49.394;8.686;2023-12-29T00:18:57;100442.34;;;9.34;100.00
60099;BME280;62818;49.394;8.686;2023-12-29T00:19:58;100444.66;;;9.29;100.00
60099;BME280;62818;49.394;8.686;2023-12-29T00:20:58;100444.81;;;9.19;100.00
60099;BME280;62818;49.394;8.686;2023-12-29T00:21:58;100448.28;;;9.12;100.00
60099;BME280;62818;49.394;8.686;2023-12-29T00:23:00;100450.09;;;9.19;100.00
60099;BME280;62818;49.394;8.686;2023-12-29T00:24:00;100441.03;;;9.14;100.00
60099;BME280;62818;49.394;8.686;2023-12-29T00:25:00;100453.56;;;9.28;100.00
60099;BME280;62818;49.394;8.686;2023-12-29T00:26:01;100455.38;;;9.19;100.00
60099;BME280;62818;49.394;8.686;2023-12-29T00:27:01;100448.59;;;9.09;100.00
60099;BME280;62818;49.394;8.686;2023-12-29T00:28:02;100439.34;;;9.13;100.00
60099;BME280;62818;49.394;8.686;2023-12-29T00:29:02;100447.63;;;9.18;100.00
60099;BME280;62818;49.394;8.686;2023-12-29T00:30:03;100445.00;;;9.10;100.00
60099;BME280;62818;49.394;8.686;2023-12-29T00:31:04;100447.63;;;9.10;100.00
60099;BME280;62818;49.394;8.686;2023-12-29T00:32:05;100451.91;;;9.11;100.00
60099;BME280;62818;49.394;8.686;2023-12-29T00:33:05;100448.28;;;9.12;100.00
60099;BME280;62818;49.394;8.686;2023-12-29T00:34:06;100452.59;;;9.21;100.00
60099;BME280;62818;49.394;8.686;2023-12-29T00:35:06;100447.78;;;9.24;100.00
60099;BME280;62818;49.394;8.686;2023-12-29T00:36:07;100446.13;;;9.23;100.00
60099;BME280;62818;49.394;8.686;2023-12-29T00:37:07;100436.88;;;9.35;100.00
60099;BME280;62818;49.394;8.686;2023-12-29T00:38:08;100436.38;;;9.24;100.00
60099;BME280;62818;49.394;8.686;2023-12-29T00:39:08;100440.34;;;9.20;100.00
60099;BME280;62818;49.394;8.686;2023-12-29T00:40:09;100436.22;;;9.09;100.00
60099;BME280;62818;49.394;8.686;2023-12-29T00:41:09;100432.75;;;9.09;100.00
60099;BME280;62818;49.394;8.686;2023-12-29T00:42:10;100430.94;;;9.09;100.00
60099;BME280;62818;49.394;8.686;2023-12-29T00:43:10;100434.75;;;9.23;100.00
60099;BME280;62818;49.394;8.686;2023-12-29T00:44:11;100431.09;;;9.24;100.00
60099;BME280;62818;49.394;8.686;2023-12-29T00:45:12;100434.22;;;9.19;100.00
60099;BME280;62818;49.394;8.686;2023-12-29T00:46:13;100431.59;;;9.27;100.00
60099;BME280;62818;49.394;8.686;2023-12-29T00:47:15;100433.72;;;9.24;100.00
60099;BME280;62818;49.394;8.686;2023-12-29T00:48:16;100426.81;;;9.23;100.00
60099;BME280;62818;49.394;8.686;2023-12-29T00:49:16;100430.13;;;9.25;100.00
60099;BME280;62818;49.394;8.686;2023-12-29T00:50:17;100420.50;;;9.24;100.00
60099;BME280;62818;49.394;8.686;2023-12-29T00:51:17;100426.47;;;9.18;100.00
60099;BME280;62818;49.394;8.686;2023-12-29T00:52:18;100426.94;;;9.21;100.00
60099;BME280;62818;49.394;8.686;2023-12-29T00:53:18;100418.84;;;9.31;100.00
60099;BME280;62818;49.394;8.686;2023-12-29T00:54:19;100424.16;;;9.31;100.00
60099;BME280;62818;49.394;8.686;2023-12-29T00:55:19;100430.25;;;9.23;100.00
60099;BME280;62818;49.394;8.686;2023-12-29T00:56:20;100424.81;;;9.33;100.00
60099;BME280;62818;49.394;8.686;2023-12-29T00:57:21;100427.78;;;9.30;100.00
60099;BME280;62818;49.394;8.686;2023-12-29T00:58:21;100426.47;;;9.26;100.00
60099;BME280;62818;49.394;8.686;2023-12-29T00:59:21;100434.56;;;9.32;100.00
60099;BME280;62818;49.394;8.686;2023-12-29T01:00:22;100431.25;;;9.46;100.00
60099;BME280;62818;49.394;8.686;2023-12-29T01:01:22;100430.25;;;9.39;100.00
60099;BME280;62818;49.394;8.686;2023-12-29T01:02:25;100431.09;;;9.24;100.00
60099;BME280;62818;49.394;8.686;2023-12-29T01:03:26;100429.78;;;9.20;100.00
60099;BME280;62818;49.394;8.686;2023-12-29T01:04:26;100430.09;;;9.41;100.00
60099;BME280;62818;49.394;8.686;2023-12-29T01:05:27;100426.78;;;9.39;100.00
60099;BME280;62818;49.394;8.686;2023-12-29T01:06:27;100436.06;;;9.27;100.00
60099;BME280;62818;49.394;8.686;2023-12-29T01:07:28;100429.44;;;9.39;100.00
60099;BME280;62818;49.394;8.686;2023-12-29T01:08:28;100434.91;;;9.29;100.00
60099;BME280;62818;49.394;8.686;2023-12-29T01:09:29;100442.97;;;9.28;100.00
60099;BME280;62818;49.394;8.686;2023-12-29T01:10:29;100443.00;;;9.36;100.00
60099;BME280;62818;49.394;8.686;2023-12-29T01:11:29;100443.31;;;9.41;100.00
60099;BME280;62818;49.394;8.686;2023-12-29T01:12:30;100439.03;;;9.32;100.00
60099;BME280;62818;49.394;8.686;2023-12-29T01:13:30;100440.34;;;9.36;100.00
60099;BME280;62818;49.394;8.686;2023-12-29T01:14:30;100440.00;;;9.39;100.00
60099;BME280;62818;49.394;8.686;2023-12-29T01:15:31;100440.00;;;9.39;100.00
60099;BME280;62818;49.394;8.686;2023-12-29T01:16:31;100439.84;;;9.32;100.00
60099;BME280;62818;49.394;8.686;2023-12-29T01:17:31;100434.06;;;9.29;100.00
60099;BME280;62818;49.394;8.686;2023-12-29T01:18:32;100436.91;;;9.27;100.00
60099;BME280;62818;49.394;8.686;2023-12-29T01:19:32;100437.69;;;9.28;100.00
60099;BME280;62818;49.394;8.686;2023-12-29T01:20:32;100438.03;;;9.33;100.00
60099;BME280;62818;49.394;8.686;2023-12-29T01:21:33;100436.38;;;9.40;100.00
60099;BME280;62818;49.394;8.686;2023-12-29T01:22:34;100433.38;;;9.43;100.00
60099;BME280;62818;49.394;8.686;2023-12-29T01:23:34;100432.06;;;9.39;100.00
60099;BME280;62818;49.394;8.686;2023-12-29T01:24:35;100430.91;;;9.57;100.00
60099;BME280;62818;49.394;8.686;2023-12-29T01:25:35;100424.47;;;9.44;100.00
60099;BME280;62818;49.394;8.686;2023-12-29T01:26:38;100423.34;;;9.38;100.00
60099;BME280;62818;49.394;8.686;2023-12-29T01:27:39;100426.44;;;9.50;100.00
60099;BME280;62818;49.394;8.686;2023-12-29T01:28:39;100423.50;;;9.29;100.00
60099;BME280;62818;49.394;8.686;2023-12-29T01:29:40;100423.16;;;9.40;100.00
60099;BME280;62818;49.394;8.686;2023-12-29T01:30:40;100429.09;;;9.42;100.00
60099;BME280;62818;49.394;8.686;2023-12-29T01:31:40;100423.47;;;9.53;100.00
60099;BME280;62818;49.394;8.686;2023-12-29T01:32:41;100413.56;;;9.31;100.00
60099;BME280;62818;49.394;8.686;2023-12-29T01:33:41;100420.50;;;9.40;100.00
60099;BME280;62818;49.394;8.686;2023-12-29T01:34:42;100427.28;;;9.42;100.00
60099;BME280;62818;49.394;8.686;2023-12-29T01:35:42;100426.13;;;9.37;100.00
60099;BME280;62818;49.394;8.686;2023-12-29T01:36:42;100432.72;;;9.41;100.00
60099;BME280;62818;49.394;8.686;2023-12-29T01:37:43;100431.56;;;9.43;100.00
60099;BME280;62818;49.394;8.686;2023-12-29T01:38:43;100422.97;;;9.41;100.00
60099;BME280;62818;49.394;8.686;2023-12-29T01:39:43;100428.78;;;9.45;100.00
60099;BME280;62818;49.394;8.686;2023-12-29T01:40:44;100431.09;;;9.40;100.00
60099;BME280;62818;49.394;8.686;2023-12-29T01:41:45;100431.75;;;9.42;100.00
60099;BME280;62818;49.394;8.686;2023-12-29T01:42:45;100430.41;;;9.46;100.00
60099;BME280;62818;49.394;8.686;2023-12-29T01:45:01;100430.41;;;9.46;100.00
60099;BME280;62818;49.394;8.686;2023-12-29T01:46:02;100430.59;;;9.36;100.00
60099;BME280;62818;49.394;8.686;2023-12-29T01:47:02;100431.72;;;9.50;100.00
60099;BME280;62818;49.394;8.686;2023-12-29T01:48:05;100430.09;;;9.49;100.00
60099;BME280;62818;49.394;8.686;2023-12-29T01:49:06;100434.38;;;9.50;100.00
60099;BME280;62818;49.394;8.686;2023-12-29T01:50:07;100432.25;;;9.37;100.00
60099;BME280;62818;49.394;8.686;2023-12-29T01:51:08;100429.25;;;9.32;100.00
60099;BME280;62818;49.394;8.686;2023-12-29T01:52:09;100430.13;;;9.25;100.00
60099;BME280;62818;49.394;8.686;2023-12-29T01:53:09;100427.63;;;9.23;100.00
60099;BME280;62818;49.394;8.686;2023-12-29T01:54:10;100426.13;;;9.29;100.00
60099;BME280;62818;49.394;8.686;2023-12-29T01:55:14;100421.81;;;9.28;100.00
60099;BME280;62818;49.394;8.686;2023-12-29T01:56:17;100419.53;;;9.25;100.00
60099;BME280;62818;49.394;8.686;2023-12-29T01:57:17;100421.84;;;9.20;100.00
60099;BME280;62818;49.394;8.686;2023-12-29T01:58:18;100413.91;;;9.36;100.00
60099;BME280;62818;49.394;8.686;2023-12-29T01:59:19;100412.75;;;9.22;100.00
60099;BME280;62818;49.394;8.686;2023-12-29T02:00:20;100412.56;;;9.24;100.00
60099;BME280;62818;49.394;8.686;2023-12-29T02:01:20;100411.25;;;9.20;100.00
60099;BME280;62818;49.394;8.686;2023-12-29T02:02:21;100408.63;;;9.20;100.00
60099;BME280;62818;49.394;8.686;2023-12-29T02:03:22;100403.00;;;9.23;100.00
60099;BME280;62818;49.394;8.686;2023-12-29T02:04:25;100397.56;;;9.16;100.00
60099;BME280;62818;49.394;8.686;2023-12-29T02:05:26;100395.56;;;9.26;100.00
60099;BME280;62818;49.394;8.686;2023-12-29T02:06:31;100395.72;;;9.09;100.00
60099;BME280;62818;49.394;8.686;2023-12-29T02:07:32;100392.06;;;9.26;100.00
60099;BME280;62818;49.394;8.686;2023-12-29T02:08:32;100390.09;;;9.20;100.00
60099;BME280;62818;49.394;8.686;2023-12-29T02:09:33;100393.41;;;9.14;100.00
60099;BME280;62818;49.394;8.686;2023-12-29T02:10:34;100387.97;;;9.07;100.00
60099;BME280;62818;49.394;8.686;2023-12-29T02:11:38;100389.47;;;9.10;100.00
60099;BME280;62818;49.394;8.686;2023-12-29T02:12:39;100391.25;;;9.01;100.00
60099;BME280;62818;49.394;8.686;2023-12-29T02:13:39;100395.72;;;9.09;100.00
60099;BME280;62818;49.394;8.686;2023-12-29T02:14:40;100391.09;;;9.03;100.00
60099;BME280;62818;49.394;8.686;2023-12-29T02:15:40;100388.78;;;9.08;100.00
60099;BME280;62818;49.394;8.686;2023-12-29T02:18:08;100378.88;;;9.18;100.00
60099;BME280;62818;49.394;8.686;2023-12-29T02:19:24;100386.97;;;9.00;100.00
60099;BME280;62818;49.394;8.686;2023-12-29T02:20:35;100383.16;;;9.11;100.00
60099;BME280;62818;49.394;8.686;2023-12-29T02:21:36;100380.50;;;8.94;100.00
60099;BME280;62818;49.394;8.686;2023-12-29T02:22:36;100373.09;;;8.98;100.00
60099;BME280;62818;49.394;8.686;2023-12-29T02:23:36;100375.56;;;8.91;100.00
60099;BME280;62818;49.394;8.686;2023-12-29T02:24:37;100379.84;;;9.09;100.00
60099;BME280;62818;49.394;8.686;2023-12-29T02:25:38;100372.56;;;8.94;100.00
60099;BME280;62818;49.394;8.686;2023-12-29T02:26:38;100375.91;;;8.97;100.00
60099;BME280;62818;49.394;8.686;2023-12-29T02:27:46;100377.38;;;8.91;100.00
60099;BME280;62818;49.394;8.686;2023-12-29T02:29:00;100375.56;;;8.91;100.00
60099;BME280;62818;49.394;8.686;2023-12-29T02:31:09;100373.59;;;8.93;100.00
60099;BME280;62818;49.394;8.686;2023-12-29T02:32:16;100374.25;;;8.95;100.00
60099;BME280;62818;49.394;8.686;2023-12-29T02:33:20;100371.09;;;9.00;100.00
60099;BME280;62818;49.394;8.686;2023-12-29T02:34:22;100368.31;;;8.93;100.00
60099;BME280;62818;49.394;8.686;2023-12-29T02:35:28;100365.66;;;8.93;100.00
60099;BME280;62818;49.394;8.686;2023-12-29T02:36:32;100364.66;;;8.86;100.00
60099;BME280;62818;49.394;8.686;2023-12-29T02:37:35;100362.66;;;8.88;100.00
60099;BME280;62818;49.394;8.686;2023-12-29T02:38:37;100363.31;;;9.15;100.00
60099;BME280;62818;49.394;8.686;2023-12-29T02:39:37;100361.84;;;9.04;100.00
60099;BME280;62818;49.394;8.686;2023-12-29T02:40:38;100367.28;;;8.94;100.00
60099;BME280;62818;49.394;8.686;2023-12-29T02:41:39;100370.94;;;8.93;100.00
60099;BME280;62818;49.394;8.686;2023-12-29T02:42:44;100369.78;;;8.96;100.00
60099;BME280;62818;49.394;8.686;2023-12-29T02:43:47;100367.47;;;8.85;100.00
60099;BME280;62818;49.394;8.686;2023-12-29T02:44:48;100365.97;;;8.90;100.00
60099;BME280;62818;49.394;8.686;2023-12-29T02:45:48;100380.53;;;9.03;100.00
60099;BME280;62818;49.394;8.686;2023-12-29T02:46:49;100371.63;;;8.87;100.00
60099;BME280;62818;49.394;8.686;2023-12-29T02:47:49;100371.44;;;8.81;100.00
60099;BME280;62818;49.394;8.686;2023-12-29T02:48:49;100372.06;;;8.75;100.00
60099;BME280;62818;49.394;8.686;2023-12-29T02:49:50;100370.25;;;8.83;100.00
60099;BME280;62818;49.394;8.686;2023-12-29T02:50:51;100371.25;;;8.90;100.00
60099;BME280;62818;49.394;8.686;2023-12-29T02:51:51;100371.28;;;8.82;100.00
60099;BME280;62818;49.394;8.686;2023-12-29T02:52:52;100378.53;;;8.88;100.00
60099;BME280;62818;49.394;8.686;2023-12-29T02:53:52;100377.03;;;8.78;100.00
60099;BME280;62818;49.394;8.686;2023-12-29T02:54:52;100378.22;;;8.91;100.00
60099;BME280;62818;49.394;8.686;2023-12-29T02:55:53;100386.81;;;8.85;100.00
60099;BME280;62818;49.394;8.686;2023-12-29T02:56:53;100389.44;;;8.85;100.00
60099;BME280;62818;49.394;8.686;2023-12-29T02:57:53;100388.47;;;9.03;100.00
60099;BME280;62818;49.394;8.686;2023-12-29T02:58:54;100388.44;;;8.78;100.00
60099;BME280;62818;49.394;8.686;2023-12-29T02:59:54;100383.47;;;8.75;100.00
60099;BME280;62818;49.394;8.686;2023-12-29T03:00:55;100377.53;;;8.81;100.00
60099;BME280;62818;49.394;8.686;2023-12-29T03:01:55;100379.50;;;8.79;100.00
60099;BME280;62818;49.394;8.686;2023-12-29T03:02:55;100379.19;;;8.82;100.00
60099;BME280;62818;49.394;8.686;2023-12-29T03:03:56;100370.44;;;8.90;100.00
60099;BME280;62818;49.394;8.686;2023-12-29T03:04:56;100366.63;;;8.84;100.00
60099;BME280;62818;49.394;8.686;2023-12-29T03:05:56;100368.44;;;8.84;100.00
60099;BME280;62818;49.394;8.686;2023-12-29T03:06:57;100368.31;;;8.85;100.00
60099;BME280;62818;49.394;8.686;2023-12-29T03:07:57;100359.19;;;8.80;100.00
60099;BME280;62818;49.394;8.686;2023-12-29T03:08:58;100369.94;;;8.86;100.00
60099;BME280;62818;49.394;8.686;2023-12-29T03:09:58;100376.91;;;8.87;100.00
60099;BME280;62818;49.394;8.686;2023-12-29T03:10:58;100374.22;;;8.79;100.00
60099;BME280;62818;49.394;8.686;2023-12-29T03:11:59;100371.44;;;8.81;100.00
60099;BME280;62818;49.394;8.686;2023-12-29T03:12:59;100372.59;;;8.86;100.00
60099;BME280;62818;49.394;8.686;2023-12-29T03:14:00;100380.19;;;8.89;100.00
60099;BME280;62818;49.394;8.686;2023-12-29T03:15:00;100381.84;;;8.99;100.00
60099;BME280;62818;49.394;8.686;2023-12-29T03:16:00;100377.38;;;8.91;100.00
60099;BME280;62818;49.394;8.686;2023-12-29T03:17:01;100379.84;;;8.84;100.00
60099;BME280;62818;49.394;8.686;2023-12-29T03:18:01;100373.56;;;8.77;100.00
60099;BME280;62818;49.394;8.686;2023-12-29T03:19:02;100371.75;;;8.86;100.00
60099;BME280;62818;49.394;8.686;2023-12-29T03:20:02;100378.53;;;8.88;100.00
60099;BME280;62818;49.394;8.686;2023-12-29T03:21:04;100369.94;;;8.94;100.00
60099;BME280;62818;49.394;8.686;2023-12-29T03:22:05;100376.91;;;8.87;100.00
60099;BME280;62818;49.394;8.686;2023-12-29T03:23:06;100380.53;;;8.78;100.00
60099;BME280;62818;49.394;8.686;2023-12-29T03:24:06;100374.88;;;8.81;100.00
60099;BME280;62818;49.394;8.686;2023-12-29T03:25:07;100376.38;;;8.76;100.00
60099;BME280;62818;49.394;8.686;2023-12-29T03:26:07;100377.56;;;8.89;100.00
60099;BME280;62818;49.394;8.686;2023-12-29T03:27:08;100377.56;;;8.89;100.00
60099;BME280;62818;49.394;8.686;2023-12-29T03:28:09;100383.81;;;8.80;100.00
60099;BME280;62818;49.394;8.686;2023-12-29T03:29:09;100381.81;;;8.66;100.00
60099;BME280;62818;49.394;8.686;2023-12-29T03:30:11;100381.16;;;8.72;100.00
60099;BME280;62818;49.394;8.686;2023-12-29T03:31:11;100379.19;;;8.82;100.00
60099;BME280;62818;49.394;8.686;2023-12-29T03:32:12;100373.56;;;8.77;100.00
60099;BME280;62818;49.394;8.686;2023-12-29T03:33:12;100371.59;;;8.95;100.00
60099;BME280;62818;49.394;8.686;2023-12-29T03:34:14;100382.97;;;8.88;100.00
60099;BME280;62818;49.394;8.686;2023-12-29T03:35:14;100380.34;;;8.80;100.00
60099;BME280;62818;49.394;8.686;2023-12-29T03:36:16;100378.03;;;8.69;100.00
60099;BME280;62818;49.394;8.686;2023-12-29T03:37:16;100379.50;;;8.79;100.00
60099;BME280;62818;49.394;8.686;2023-12-29T03:38:17;100376.56;;;8.90;100.00
60099;BME280;62818;49.394;8.686;2023-12-29T03:39:17;100374.41;;;8.86;100.00
60099;BME280;62818;49.394;8.686;2023-12-29T03:40:18;100374.41;;;8.86;100.00
60099;BME280;62818;49.394;8.686;2023-12-29T03:41:19;100385.31;;;8.83;100.00
60099;BME280;62818;49.394;8.686;2023-12-29T03:42:19;100380.00;;;8.75;100.00
60099;BME280;62818;49.394;8.686;2023-12-29T03:43:19;100377.19;;;8.68;100.00
60099;BME280;62818;49.394;8.686;2023-12-29T03:44:20;100376.69;;;8.73;100.00
60099;BME280;62818;49.394;8.686;2023-12-29T03:45:20;100379.81;;;8.60;100.00
60099;BME280;62818;49.394;8.686;2023-12-29T03:46:20;100377.88;;;8.78;100.00
60099;BME280;62818;49.394;8.686;2023-12-29T03:47:21;100370.59;;;8.72;100.00
60099;BME280;62818;49.394;8.686;2023-12-29T03:48:21;100373.88;;;8.66;100.00
60099;BME280;62818;49.394;8.686;2023-12-29T03:49:22;100383.00;;;8.72;100.00
60099;BME280;62818;49.394;8.686;2023-12-29T03:50:22;100383.00;;;8.72;100.00
60099;BME280;62818;49.394;8.686;2023-12-29T03:51:22;100375.88;;;8.72;100.00
60099;BME280;62818;49.394;8.686;2023-12-29T03:52:23;100384.28;;;8.60;100.00
60099;BME280;62818;49.394;8.686;2023-12-29T03:53:23;100379.84;;;8.68;100.00
60099;BME280;62818;49.394;8.686;2023-12-29T03:54:23;100375.53;;;8.59;100.00
60099;BME280;62818;49.394;8.686;2023-12-29T03:55:24;100376.56;;;8.74;100.00
60099;BME280;62818;49.394;8.686;2023-12-29T03:56:24;100374.72;;;8.67;100.00
60099;BME280;62818;49.394;8.686;2023-12-29T03:57:25;100372.72;;;8.61;100.00
60099;BME280;62818;49.394;8.686;2023-12-29T03:58:25;100371.91;;;8.68;100.00
60099;BME280;62818;49.394;8.686;2023-12-29T03:59:26;100369.75;;;8.64;100.00
60099;BME280;62818;49.394;8.686;2023-12-29T04:00:26;100374.22;;;8.71;100.00
60099;BME280;62818;49.394;8.686;2023-12-29T04:01:26;100366.16;;;8.81;100.00
60099;BME280;62818;49.394;8.686;2023-12-29T04:02:28;100369.28;;;8.76;100.00
60099;BME280;62818;49.394;8.686;2023-12-29T04:03:28;100369.91;;;8.70;100.00
60099;BME280;62818;49.394;8.686;2023-12-29T04:04:28;100375.56;;;8.67;100.00
60099;BME280;62818;49.394;8.686;2023-12-29T04:05:29;100378.16;;;8.59;100.00
60099;BME280;62818;49.394;8.686;2023-12-29T04:06:29;100371.25;;;8.58;100.00
60099;BME280;62818;49.394;8.686;2023-12-29T04:07:29;100367.59;;;8.59;100.00
60099;BME280;62818;49.394;8.686;2023-12-29T04:08:30;100372.56;;;8.62;100.00
60099;BME280;62818;49.394;8.686;2023-12-29T04:09:31;100371.91;;;8.60;100.00
60099;BME280;62818;49.394;8.686;2023-12-29T04:10:31;100370.94;;;8.61;100.00
60099;BME280;62818;49.394;8.686;2023-12-29T04:11:31;100370.59;;;8.64;100.00
60099;BME280;62818;49.394;8.686;2023-12-29T04:12:32;100374.53;;;8.52;100.00
60099;BME280;62818;49.394;8.686;2023-12-29T04:13:32;100368.94;;;8.71;100.00
60099;BME280;62818;49.394;8.686;2023-12-29T04:14:33;100370.59;;;8.64;100.00
60099;BME280;62818;49.394;8.686;2023-12-29T04:15:33;100366.47;;;8.78;100.00
60099;BME280;62818;49.394;8.686;2023-12-29T04:16:33;100366.97;;;8.65;100.00
60099;BME280;62818;49.394;8.686;2023-12-29T04:17:37;100361.34;;;8.68;100.00
60099;BME280;62818;49.394;8.686;2023-12-29T04:18:38;100363.16;;;8.60;100.00
60099;BME280;62818;49.394;8.686;2023-12-29T04:19:39;100361.50;;;8.67;100.00
60099;BME280;62818;49.394;8.686;2023-12-29T04:20:42;100359.03;;;8.65;100.00
60099;BME280;62818;49.394;8.686;2023-12-29T04:21:42;100364.81;;;8.61;100.00
60099;BME280;62818;49.394;8.686;2023-12-29T04:22:43;100363.63;;;8.55;100.00
60099;BME280;62818;49.394;8.686;2023-12-29T04:23:43;100367.09;;;8.64;100.00
60099;BME280;62818;49.394;8.686;2023-12-29T04:24:44;100366.78;;;8.75;100.00
60099;BME280;62818;49.394;8.686;2023-12-29T04:25:44;100366.66;;;8.76;100.00
60099;BME280;62818;49.394;8.686;2023-12-29T04:26:45;100362.03;;;8.78;100.00
60099;BME280;62818;49.394;8.686;2023-12-29T04:27:45;100362.31;;;8.59;100.00
60099;BME280;62818;49.394;8.686;2023-12-29T04:28:46;100361.50;;;8.75;100.00
60099;BME280;62818;49.394;8.686;2023-12-29T04:29:46;100360.00;;;8.64;100.00
60099;BME280;62818;49.394;8.686;2023-12-29T04:30:46;100365.78;;;8.60;100.00
60099;BME280;62818;49.394;8.686;2023-12-29T04:31:47;100358.19;;;8.73;100.00
60099;BME280;62818;49.394;8.686;2023-12-29T04:32:48;100358.38;;;8.63;100.00
60099;BME280;62818;49.394;8.686;2023-12-29T04:33:48;100359.34;;;8.70;100.00
60099;BME280;62818;49.394;8.686;2023-12-29T04:34:48;100363.97;;;8.60;100.00
60099;BME280;62818;49.394;8.686;2023-12-29T04:35:49;100370.94;;;8.69;100.00
60099;BME280;62818;49.394;8.686;2023-12-29T04:36:49;100375.53;;;8.59;100.00
60099;BME280;62818;49.394;8.686;2023-12-29T04:37:49;100371.41;;;8.65;100.00
60099;BME280;62818;49.394;8.686;2023-12-29T04:38:51;100370.94;;;8.61;100.00
60099;BME280;62818;49.394;8.686;2023-12-29T04:39:51;100374.22;;;8.71;100.00
60099;BME280;62818;49.394;8.686;2023-12-29T04:40:51;100373.72;;;8.84;100.00
60099;BME280;62818;49.394;8.686;2023-12-29T04:41:52;100373.25;;;8.80;100.00
60099;BME280;62818;49.394;8.686;2023-12-29T04:42:52;100364.97;;;8.75;100.00
60099;BME280;62818;49.394;8.686;2023-12-29T04:43:52;100373.56;;;8.61;100.00
60099;BME280;62818;49.394;8.686;2023-12-29T04:44:53;100369.25;;;8.60;100.00
60099;BME280;62818;49.394;8.686;2023-12-29T04:45:53;100373.41;;;8.63;100.00
60099;BME280;62818;49.394;8.686;2023-12-29T04:46:54;100368.44;;;8.84;100.00
60099;BME280;62818;49.394;8.686;2023-12-29T04:47:54;100377.88;;;8.78;100.00
60099;BME280;62818;49.394;8.686;2023-12-29T04:48:54;100365.00;;;8.91;100.00
60099;BME280;62818;49.394;8.686;2023-12-29T04:49:55;100378.88;;;9.10;100.00
60099;BME280;62818;49.394;8.686;2023-12-29T04:50:56;100375.91;;;8.97;100.00
60099;BME280;62818;49.394;8.686;2023-12-29T04:51:56;100376.06;;;8.87;100.00
60099;BME280;62818;49.394;8.686;2023-12-29T04:52:56;100376.72;;;8.97;100.00
60099;BME280;62818;49.394;8.686;2023-12-29T04:53:57;100374.91;;;9.06;100.00
60099;BME280;62818;49.394;8.686;2023-12-29T04:54:57;100378.53;;;9.05;100.00
60099;BME280;62818;49.394;8.686;2023-12-29T04:55:58;100373.94;;;8.99;100.00
60099;BME280;62818;49.394;8.686;2023-12-29T04:56:58;100371.25;;;8.90;100.00
60099;BME280;62818;49.394;8.686;2023-12-29T04:57:58;100377.22;;;9.01;100.00
60099;BME280;62818;49.394;8.686;2023-12-29T04:58:59;100373.91;;;8.90;100.00
60099;BME280;62818;49.394;8.686;2023-12-29T05:00:00;100359.06;;;8.89;100.00
60099;BME280;62818;49.394;8.686;2023-12-29T05:01:01;100356.72;;;9.03;100.00
60099;BME280;62818;49.394;8.686;2023-12-29T05:02:01;100360.88;;;8.89;100.00
60099;BME280;62818;49.394;8.686;2023-12-29T05:03:02;100361.00;;;8.79;100.00
60099;BME280;62818;49.394;8.686;2023-12-29T05:04:02;100367.63;;;8.91;100.00
60099;BME280;62818;49.394;8.686;2023-12-29T05:05:03;100363.81;;;8.86;100.00
60099;BME280;62818;49.394;8.686;2023-12-29T05:06:03;100370.09;;;8.77;100.00
60099;BME280;62818;49.394;8.686;2023-12-29T05:07:07;100373.88;;;8.66;100.00
60099;BME280;62818;49.394;8.686;2023-12-29T05:08:08;100377.84;;;8.70;100.00
60099;BME280;62818;49.394;8.686;2023-12-29T05:09:09;100371.91;;;8.68;100.00
60099;BME280;62818;49.394;8.686;2023-12-29T05:10:09;100359.69;;;8.75;100.00
60099;BME280;62818;49.394;8.686;2023-12-29T05:11:10;100362.03;;;8.78;100.00
60099;BME280;62818;49.394;8.686;2023-12-29T05:12:10;100361.38;;;8.76;100.00
60099;BME280;62818;49.394;8.686;2023-12-29T05:13:10;100356.72;;;8.78;100.00
60099;BME280;62818;49.394;8.686;2023-12-29T05:14:11;100361.69;;;8.73;100.00
60099;BME280;62818;49.394;8.686;2023-12-29T05:15:11;100358.38;;;8.63;100.00
60099;BME280;62818;49.394;8.686;2023-12-29T05:16:11;100352.75;;;8.50;100.00
60099;BME280;62818;49.394;8.686;2023-12-29T05:17:13;100353.72;;;8.57;100.00
60099;BME280;62818;49.394;8.686;2023-12-29T05:18:13;100346.63;;;8.50;100.00
60099;BME280;62818;49.394;8.686;2023-12-29T05:19:14;100355.72;;;8.63;100.00
60099;BME280;62818;49.394;8.686;2023-12-29T05:20:14;100355.06;;;8.61;100.00
60099;BME280;62818;49.394;8.686;2023-12-29T05:21:18;100340.03;;;8.62;100.00
60099;BME280;62818;49.394;8.686;2023-12-29T05:22:19;100339.22;;;8.61;100.00